Station Historical Data
Daily Summary for January 3, 2012 Units:  Both    English   Metric
« Previous Day
Next Day »
Daily Weekly Monthly Yearly Custom
  High: Low: Average:
Temperature: 36.6 °F /  2.6 °C 16.6 °F /  -8.6 °C 26 °F /  -3.3 °C
Dew Point: 17.4 °F /  -8.1 °C 7.1 °F /  -13.8 °C 10.4 °F /  -12 °C
Humidity: 75% 31% 52%
Wind Speed: 25.0mph /  40.2km/h - 3.4mph /  5.5km/h
Wind Gust: 25.0mph /  40.2km/h - -
Wind- - WSW
Pressure: 30.58 in /  1035.4 hPa 30.38 in /  1028.7 hPa -
Precipitation: 0.00 in /  0 mm    
Historical Graphs
 
 
Tabular Data for January 3, 2012
Time Temperature Dew Point Pressure Wind Wind Speed Wind Gust Humidity Rainfall Rate (Hourly) Conditions
00:00 26.1 °F /  -3.3 °C 10.0 °F /  -12.2 °C 30.40in /  1029.3hPa WNW 5.0mph /  8km/h 11.0mph /  17.7km/h 50% 0.00in /  0mm
00:01 26.1 °F /  -3.3 °C 10.0 °F /  -12.2 °C 30.40in /  1029.3hPa NW 2.0mph /  3.2km/h 11.0mph /  17.7km/h 50% 0.00in /  0mm
00:06 26.2 °F /  -3.2 °C 11.0 °F /  -11.7 °C 30.40in /  1029.3hPa NNW 6.0mph /  9.7km/h 10.0mph /  16.1km/h 52% 0.00in /  0mm
00:11 26.2 °F /  -3.2 °C 11.4 °F /  -11.4 °C 30.40in /  1029.3hPa NNW 5.0mph /  8km/h 9.0mph /  14.5km/h 53% 0.00in /  0mm
00:16 26.2 °F /  -3.2 °C 11.8 °F /  -11.2 °C 30.40in /  1029.3hPa NNE 7.0mph /  11.3km/h 7.0mph /  11.3km/h 54% 0.00in /  0mm
00:21 26.3 °F /  -3.2 °C 12.8 °F /  -10.7 °C 30.41in /  1029.7hPa NNW 4.0mph /  6.4km/h 12.0mph /  19.3km/h 56% 0.00in /  0mm
00:26 26.2 °F /  -3.2 °C 13.4 °F /  -10.3 °C 30.41in /  1029.7hPa North 7.0mph /  11.3km/h 15.0mph /  24.1km/h 58% 0.00in /  0mm
00:31 26.2 °F /  -3.2 °C 13.8 °F /  -10.1 °C 30.41in /  1029.7hPa NNW 9.0mph /  14.5km/h 12.0mph /  19.3km/h 59% 0.00in /  0mm
00:36 26.1 °F /  -3.3 °C 14.1 °F /  -9.9 °C 30.41in /  1029.7hPa NNW 4.0mph /  6.4km/h 7.0mph /  11.3km/h 60% 0.00in /  0mm
00:41 26.2 °F /  -3.2 °C 14.2 °F /  -9.9 °C 30.41in /  1029.7hPa NW 10.0mph /  16.1km/h 15.0mph /  24.1km/h 60% 0.00in /  0mm
00:46 26.1 °F /  -3.3 °C 14.1 °F /  -9.9 °C 30.41in /  1029.7hPa NW 7.0mph /  11.3km/h 11.0mph /  17.7km/h 60% 0.00in /  0mm
00:51 26.2 °F /  -3.2 °C 14.2 °F /  -9.9 °C 30.41in /  1029.7hPa NNE 9.0mph /  14.5km/h 15.0mph /  24.1km/h 60% 0.00in /  0mm
00:56 26.2 °F /  -3.2 °C 15.0 °F /  -9.4 °C 30.42in /  1030hPa NNE 14.0mph /  22.5km/h 15.0mph /  24.1km/h 62% 0.00in /  0mm
01:00 26.0 °F /  -3.3 °C 15.5 °F /  -9.2 °C 30.42in /  1030hPa NW 25.0mph /  40.2km/h 25.0mph /  40.2km/h 64% 0.00in /  0mm
01:01 26.0 °F /  -3.3 °C 15.5 °F /  -9.2 °C 30.42in /  1030hPa North 15.0mph /  24.1km/h 25.0mph /  40.2km/h 64% 0.00in /  0mm
01:06 25.8 °F /  -3.4 °C 15.7 °F /  -9.1 °C 30.42in /  1030hPa NW 10.0mph /  16.1km/h 19.0mph /  30.6km/h 65% 0.00in /  0mm
01:11 25.6 °F /  -3.6 °C 15.5 °F /  -9.2 °C 30.42in /  1030hPa NNW 11.0mph /  17.7km/h 14.0mph /  22.5km/h 65% 0.00in /  0mm
01:16 25.4 °F /  -3.7 °C 15.3 °F /  -9.3 °C 30.42in /  1030hPa WNW 9.0mph /  14.5km/h 17.0mph /  27.4km/h 65% 0.00in /  0mm
01:22 25.2 °F /  -3.8 °C 15.4 °F /  -9.2 °C 30.42in /  1030hPa NW 13.0mph /  20.9km/h 15.0mph /  24.1km/h 66% 0.00in /  0mm
01:27 25.2 °F /  -3.8 °C 15.8 °F /  -9 °C 30.42in /  1030hPa NW 11.0mph /  17.7km/h 13.0mph /  20.9km/h 67% 0.00in /  0mm
01:30 25.1 °F /  -3.8 °C 16.7 °F /  -8.5 °C 30.42in /  1030hPa NW 12.0mph /  19.3km/h 16.0mph /  25.7km/h 70% 0.00in /  0mm
01:32 25.0 °F /  -3.9 °C 16.6 °F /  -8.6 °C 30.42in /  1030hPa NW 12.0mph /  19.3km/h 16.0mph /  25.7km/h 70% 0.00in /  0mm
01:37 24.9 °F /  -3.9 °C 17.2 °F /  -8.2 °C 30.43in /  1030.4hPa NW 6.0mph /  9.7km/h 11.0mph /  17.7km/h 72% 0.00in /  0mm
01:39 24.8 °F /  -4 °C 17.4 °F /  -8.1 °C 30.43in /  1030.4hPa NW 14.0mph /  22.5km/h 16.0mph /  25.7km/h 73% 0.00in /  0mm
01:44 24.4 °F /  -4.2 °C 15.0 °F /  -9.4 °C 30.43in /  1030.4hPa NNW 11.0mph /  17.7km/h 17.0mph /  27.4km/h 67% 0.00in /  0mm
01:49 24.2 °F /  -4.3 °C 14.1 °F /  -9.9 °C 30.44in /  1030.7hPa NW 8.0mph /  12.9km/h 18.0mph /  29km/h 65% 0.00in /  0mm
01:54 24.0 °F /  -4.4 °C 14.0 °F /  -10 °C 30.44in /  1030.7hPa NNW 7.0mph /  11.3km/h 16.0mph /  25.7km/h 65% 0.00in /  0mm
01:59 24.0 °F /  -4.4 °C 13.2 °F /  -10.4 °C 30.44in /  1030.7hPa NW 18.0mph /  29km/h 19.0mph /  30.6km/h 63% 0.00in /  0mm
02:00 24.0 °F /  -4.4 °C 13.2 °F /  -10.4 °C 30.44in /  1030.7hPa NW 13.0mph /  20.9km/h 19.0mph /  30.6km/h 63% 0.00in /  0mm
02:04 24.0 °F /  -4.4 °C 13.2 °F /  -10.4 °C 30.44in /  1030.7hPa NNW 14.0mph /  22.5km/h 17.0mph /  27.4km/h 63% 0.00in /  0mm
02:09 24.0 °F /  -4.4 °C 13.2 °F /  -10.4 °C 30.44in /  1030.7hPa NNW 12.0mph /  19.3km/h 18.0mph /  29km/h 63% 0.00in /  0mm
02:14 24.0 °F /  -4.4 °C 13.2 °F /  -10.4 °C 30.44in /  1030.7hPa NNE 12.0mph /  19.3km/h 17.0mph /  27.4km/h 63% 0.00in /  0mm
02:19 23.9 °F /  -4.5 °C 11.7 °F /  -11.3 °C 30.44in /  1030.7hPa North 9.0mph /  14.5km/h 17.0mph /  27.4km/h 59% 0.00in /  0mm
02:24 23.7 °F /  -4.6 °C 9.5 °F /  -12.5 °C 30.45in /  1031hPa North 13.0mph /  20.9km/h 21.0mph /  33.8km/h 54% 0.00in /  0mm
02:29 23.5 °F /  -4.7 °C 8.9 °F /  -12.8 °C 30.45in /  1031hPa NNE 9.0mph /  14.5km/h 19.0mph /  30.6km/h 53% 0.00in /  0mm
02:30 23.5 °F /  -4.7 °C 8.9 °F /  -12.8 °C 30.45in /  1031hPa NNW 7.0mph /  11.3km/h 13.0mph /  20.9km/h 53% 0.00in /  0mm
02:34 23.3 °F /  -4.8 °C 8.3 °F /  -13.2 °C 30.45in /  1031hPa NNW 9.0mph /  14.5km/h 21.0mph /  33.8km/h 52% 0.00in /  0mm
02:39 23.1 °F /  -4.9 °C 8.1 °F /  -13.3 °C 30.45in /  1031hPa NNW 9.0mph /  14.5km/h 16.0mph /  25.7km/h 52% 0.00in /  0mm
02:44 22.9 °F /  -5.1 °C 7.9 °F /  -13.4 °C 30.46in /  1031.4hPa NNW 8.0mph /  12.9km/h 18.0mph /  29km/h 52% 0.00in /  0mm
02:49 22.6 °F /  -5.2 °C 8.1 °F /  -13.3 °C 30.46in /  1031.4hPa NW 7.0mph /  11.3km/h 13.0mph /  20.9km/h 53% 0.00in /  0mm
02:54 22.4 °F /  -5.3 °C 7.9 °F /  -13.4 °C 30.46in /  1031.4hPa NNE 11.0mph /  17.7km/h 14.0mph /  22.5km/h 53% 0.00in /  0mm
02:59 22.3 °F /  -5.4 °C 8.2 °F /  -13.2 °C 30.46in /  1031.4hPa NW 5.0mph /  8km/h 14.0mph /  22.5km/h 54% 0.00in /  0mm
03:00 22.2 °F /  -5.4 °C 8.1 °F /  -13.3 °C 30.46in /  1031.4hPa NNW 5.0mph /  8km/h 13.0mph /  20.9km/h 54% 0.00in /  0mm
03:05 22.0 °F /  -5.6 °C 7.9 °F /  -13.4 °C 30.46in /  1031.4hPa NNW 8.0mph /  12.9km/h 13.0mph /  20.9km/h 54% 0.00in /  0mm
03:10 21.9 °F /  -5.6 °C 7.8 °F /  -13.4 °C 30.46in /  1031.4hPa North 13.0mph /  20.9km/h 13.0mph /  20.9km/h 54% 0.00in /  0mm
03:15 21.8 °F /  -5.7 °C 7.7 °F /  -13.5 °C 30.47in /  1031.7hPa NW 9.0mph /  14.5km/h 15.0mph /  24.1km/h 54% 0.00in /  0mm
03:20 21.8 °F /  -5.7 °C 7.3 °F /  -13.7 °C 30.47in /  1031.7hPa NNW 10.0mph /  16.1km/h 19.0mph /  30.6km/h 53% 0.00in /  0mm
03:25 21.7 °F /  -5.7 °C 7.2 °F /  -13.8 °C 30.47in /  1031.7hPa NW 6.0mph /  9.7km/h 12.0mph /  19.3km/h 53% 0.00in /  0mm
03:30 21.6 °F /  -5.8 °C 7.1 °F /  -13.8 °C 30.47in /  1031.7hPa NNW 11.0mph /  17.7km/h 14.0mph /  22.5km/h 53% 0.00in /  0mm
03:35 21.5 °F /  -5.8 °C 7.4 °F /  -13.7 °C 30.47in /  1031.7hPa NW 6.0mph /  9.7km/h 10.0mph /  16.1km/h 54% 0.00in /  0mm
03:40 21.3 °F /  -5.9 °C 7.3 °F /  -13.7 °C 30.48in /  1032.1hPa NNW 5.0mph /  8km/h 9.0mph /  14.5km/h 54% 0.00in /  0mm
03:45 21.1 °F /  -6.1 °C 7.1 °F /  -13.8 °C 30.48in /  1032.1hPa NNW 5.0mph /  8km/h 9.0mph /  14.5km/h 54% 0.00in /  0mm
03:50 20.9 °F /  -6.2 °C 7.7 °F /  -13.5 °C 30.48in /  1032.1hPa NE 4.0mph /  6.4km/h 5.0mph /  8km/h 56% 0.00in /  0mm
03:55 20.8 °F /  -6.2 °C 7.6 °F /  -13.6 °C 30.47in /  1031.7hPa NNW 4.0mph /  6.4km/h 12.0mph /  19.3km/h 56% 0.00in /  0mm
04:00 20.8 °F /  -6.2 °C 7.6 °F /  -13.6 °C 30.47in /  1031.7hPa NNW 4.0mph /  6.4km/h 9.0mph /  14.5km/h 56% 0.00in /  0mm
04:05 20.6 °F /  -6.3 °C 7.8 °F /  -13.4 °C 30.47in /  1031.7hPa NNW 5.0mph /  8km/h 9.0mph /  14.5km/h 57% 0.00in /  0mm
04:10 20.4 °F /  -6.4 °C 7.6 °F /  -13.6 °C 30.47in /  1031.7hPa NNW 3.0mph /  4.8km/h 5.0mph /  8km/h 57% 0.00in /  0mm
04:15 20.3 °F /  -6.5 °C 7.5 °F /  -13.6 °C 30.48in /  1032.1hPa NNW 6.0mph /  9.7km/h 7.0mph /  11.3km/h 57% 0.00in /  0mm
04:20 20.2 °F /  -6.6 °C 7.8 °F /  -13.4 °C 30.48in /  1032.1hPa NNW 4.0mph /  6.4km/h 8.0mph /  12.9km/h 58% 0.00in /  0mm
04:25 20.1 °F /  -6.6 °C 8.1 °F /  -13.3 °C 30.48in /  1032.1hPa North 4.0mph /  6.4km/h 5.0mph /  8km/h 59% 0.00in /  0mm
04:30 20.1 °F /  -6.6 °C 7.7 °F /  -13.5 °C 30.48in /  1032.1hPa North 6.0mph /  9.7km/h 8.0mph /  12.9km/h 58% 0.00in /  0mm
04:35 20.1 °F /  -6.6 °C 8.1 °F /  -13.3 °C 30.48in /  1032.1hPa NNW 5.0mph /  8km/h 6.0mph /  9.7km/h 59% 0.00in /  0mm
04:41 20.0 °F /  -6.7 °C 8.0 °F /  -13.3 °C 30.48in /  1032.1hPa NNW 4.0mph /  6.4km/h 6.0mph /  9.7km/h 59% 0.00in /  0mm
04:46 19.8 °F /  -6.8 °C 8.2 °F /  -13.2 °C 30.48in /  1032.1hPa NNW 3.0mph /  4.8km/h 5.0mph /  8km/h 60% 0.00in /  0mm
04:51 19.7 °F /  -6.8 °C 8.1 °F /  -13.3 °C 30.48in /  1032.1hPa NW 4.0mph /  6.4km/h 5.0mph /  8km/h 60% 0.00in /  0mm
04:56 19.6 °F /  -6.9 °C 8.4 °F /  -13.1 °C 30.48in /  1032.1hPa NNW 2.0mph /  3.2km/h 6.0mph /  9.7km/h 61% 0.00in /  0mm
05:00 19.4 °F /  -7 °C 8.2 °F /  -13.2 °C 30.48in /  1032.1hPa NNW 2.0mph /  3.2km/h 4.0mph /  6.4km/h 61% 0.00in /  0mm
05:01 19.4 °F /  -7 °C 8.2 °F /  -13.2 °C 30.48in /  1032.1hPa NW 2.0mph /  3.2km/h 4.0mph /  6.4km/h 61% 0.00in /  0mm
05:06 19.4 °F /  -7 °C 8.5 °F /  -13.1 °C 30.48in /  1032.1hPa NW 1.0mph /  1.6km/h 3.0mph /  4.8km/h 62% 0.00in /  0mm
05:11 19.2 °F /  -7.1 °C 8.3 °F /  -13.2 °C 30.49in /  1032.4hPa NNW 2.0mph /  3.2km/h 4.0mph /  6.4km/h 62% 0.00in /  0mm
05:16 19.1 °F /  -7.2 °C 8.2 °F /  -13.2 °C 30.49in /  1032.4hPa NNW 4.0mph /  6.4km/h 4.0mph /  6.4km/h 62% 0.00in /  0mm
05:21 19.2 °F /  -7.1 °C 8.3 °F /  -13.2 °C 30.49in /  1032.4hPa NW 2.0mph /  3.2km/h 3.0mph /  4.8km/h 62% 0.00in /  0mm
05:26 19.1 °F /  -7.2 °C 8.2 °F /  -13.2 °C 30.50in /  1032.7hPa NNW 2.0mph /  3.2km/h 4.0mph /  6.4km/h 62% 0.00in /  0mm
05:30 19.1 °F /  -7.2 °C 8.2 °F /  -13.2 °C 30.50in /  1032.7hPa NNW 2.0mph /  3.2km/h 3.0mph /  4.8km/h 62% 0.00in /  0mm
05:31 19.1 °F /  -7.2 °C 8.6 °F /  -13 °C 30.50in /  1032.7hPa NNW 3.0mph /  4.8km/h 3.0mph /  4.8km/h 63% 0.00in /  0mm
05:36 19.1 °F /  -7.2 °C 8.2 °F /  -13.2 °C 30.50in /  1032.7hPa NNW 2.0mph /  3.2km/h 4.0mph /  6.4km/h 62% 0.00in /  0mm
05:41 19.0 °F /  -7.2 °C 8.5 °F /  -13.1 °C 30.50in /  1032.7hPa NW 2.0mph /  3.2km/h 2.0mph /  3.2km/h 63% 0.00in /  0mm
05:46 18.9 °F /  -7.3 °C 8.4 °F /  -13.1 °C 30.50in /  1032.7hPa NW 1.0mph /  1.6km/h 3.0mph /  4.8km/h 63% 0.00in /  0mm
05:51 18.8 °F /  -7.3 °C 8.6 °F /  -13 °C 30.50in /  1032.7hPa NW 1.0mph /  1.6km/h 3.0mph /  4.8km/h 64% 0.00in /  0mm
05:56 18.7 °F /  -7.4 °C 8.6 °F /  -13 °C 30.50in /  1032.7hPa NNW 2.0mph /  3.2km/h 2.0mph /  3.2km/h 64% 0.00in /  0mm
06:00 18.7 °F /  -7.4 °C 8.6 °F /  -13 °C 30.50in /  1032.7hPa NNW 2.0mph /  3.2km/h 2.0mph /  3.2km/h 64% 0.00in /  0mm
06:01 18.6 °F /  -7.4 °C 8.5 °F /  -13.1 °C 30.50in /  1032.7hPa NNW 2.0mph /  3.2km/h 2.0mph /  3.2km/h 64% 0.00in /  0mm
06:06 18.7 °F /  -7.4 °C 8.6 °F /  -13 °C 30.50in /  1032.7hPa NW 2.0mph /  3.2km/h 3.0mph /  4.8km/h 64% 0.00in /  0mm
06:11 18.4 °F /  -7.6 °C 8.6 °F /  -13 °C 30.50in /  1032.7hPa NW 1.0mph /  1.6km/h 2.0mph /  3.2km/h 65% 0.00in /  0mm
06:16 18.1 °F /  -7.7 °C 9.0 °F /  -12.8 °C 30.51in /  1033.1hPa NW 1.0mph /  1.6km/h 2.0mph /  3.2km/h 67% 0.00in /  0mm
06:21 18.1 °F /  -7.7 °C 8.7 °F /  -12.9 °C 30.51in /  1033.1hPa NW 1.0mph /  1.6km/h 2.0mph /  3.2km/h 66% 0.00in /  0mm
06:26 18.2 °F /  -7.7 °C 9.1 °F /  -12.7 °C 30.51in /  1033.1hPa NW 1.0mph /  1.6km/h 1.0mph /  1.6km/h 67% 0.00in /  0mm
06:30 18.1 °F /  -7.7 °C 8.7 °F /  -12.9 °C 30.51in /  1033.1hPa NW 1.0mph /  1.6km/h 2.0mph /  3.2km/h 66% 0.00in /  0mm
06:31 18.1 °F /  -7.7 °C 8.7 °F /  -12.9 °C 30.51in /  1033.1hPa NW 1.0mph /  1.6km/h 2.0mph /  3.2km/h 66% 0.00in /  0mm
06:36 18.1 °F /  -7.7 °C 8.7 °F /  -12.9 °C 30.51in /  1033.1hPa Calm   1.0mph /  1.6km/h 66% 0.00in /  0mm
06:41 18.1 °F /  -7.7 °C 9.0 °F /  -12.8 °C 30.51in /  1033.1hPa Calm     67% 0.00in /  0mm
06:46 17.7 °F /  -7.9 °C 8.6 °F /  -13 °C 30.52in /  1033.4hPa Calm     67% 0.00in /  0mm
06:51 17.5 °F /  -8.1 °C 8.4 °F /  -13.1 °C 30.52in /  1033.4hPa Calm     67% 0.00in /  0mm
06:56 17.3 °F /  -8.2 °C 8.2 °F /  -13.2 °C 30.52in /  1033.4hPa Calm     67% 0.00in /  0mm
07:00 17.3 °F /  -8.2 °C 8.6 °F /  -13 °C 30.52in /  1033.4hPa Calm   1.0mph /  1.6km/h 68% 0.00in /  0mm
07:01 17.3 °F /  -8.2 °C 8.6 °F /  -13 °C 30.52in /  1033.4hPa Calm   1.0mph /  1.6km/h 68% 0.00in /  0mm
07:06 17.1 °F /  -8.3 °C 8.7 °F /  -12.9 °C 30.52in /  1033.4hPa Calm   1.0mph /  1.6km/h 69% 0.00in /  0mm
07:11 17.1 °F /  -8.3 °C 8.7 °F /  -12.9 °C 30.52in /  1033.4hPa Calm   1.0mph /  1.6km/h 69% 0.00in /  0mm
07:16 17.2 °F /  -8.2 °C 9.1 °F /  -12.7 °C 30.52in /  1033.4hPa Calm   1.0mph /  1.6km/h 70% 0.00in /  0mm
07:21 17.0 °F /  -8.3 °C 9.9 °F /  -12.3 °C 30.53in /  1033.7hPa Calm     73% 0.00in /  0mm
07:26 16.8 °F /  -8.4 °C 9.4 °F /  -12.6 °C 30.53in /  1033.7hPa Calm     72% 0.00in /  0mm
07:30 16.6 °F /  -8.6 °C 8.9 °F /  -12.8 °C 30.53in /  1033.7hPa Calm     71% 0.00in /  0mm
07:31 16.6 °F /  -8.6 °C 8.9 °F /  -12.8 °C 30.53in /  1033.7hPa Calm     71% 0.00in /  0mm
07:36 16.7 °F /  -8.5 °C 8.9 °F /  -12.8 °C 30.53in /  1033.7hPa Calm   1.0mph /  1.6km/h 71% 0.00in /  0mm
07:41 16.8 °F /  -8.4 °C 8.7 °F /  -12.9 °C 30.53in /  1033.7hPa Calm   1.0mph /  1.6km/h 70% 0.00in /  0mm
07:46 16.8 °F /  -8.4 °C 8.7 °F /  -12.9 °C 30.53in /  1033.7hPa Calm     70% 0.00in /  0mm
07:51 16.8 °F /  -8.4 °C 8.7 °F /  -12.9 °C 30.53in /  1033.7hPa West 1.0mph /  1.6km/h 1.0mph /  1.6km/h 70% 0.00in /  0mm
07:56 16.8 °F /  -8.4 °C 8.7 °F /  -12.9 °C 30.53in /  1033.7hPa West 1.0mph /  1.6km/h 1.0mph /  1.6km/h 70% 0.00in /  0mm
08:00 16.8 °F /  -8.4 °C 8.7 °F /  -12.9 °C 30.54in /  1034.1hPa West 1.0mph /  1.6km/h 1.0mph /  1.6km/h 70% 0.00in /  0mm
08:01 16.8 °F /  -8.4 °C 8.7 °F /  -12.9 °C 30.54in /  1034.1hPa West 1.0mph /  1.6km/h 1.0mph /  1.6km/h 70% 0.00in /  0mm
08:06 16.8 °F /  -8.4 °C 8.7 °F /  -12.9 °C 30.54in /  1034.1hPa West 1.0mph /  1.6km/h 1.0mph /  1.6km/h 70% 0.00in /  0mm
08:11 17.0 °F /  -8.3 °C 9.2 °F /  -12.7 °C 30.53in /  1033.7hPa Calm   1.0mph /  1.6km/h 71% 0.00in /  0mm
08:16 17.1 °F /  -8.3 °C 10.3 °F /  -12.1 °C 30.53in /  1033.7hPa Calm     74% 0.00in /  0mm
08:21 17.1 °F /  -8.3 °C 10.6 °F /  -11.9 °C 30.53in /  1033.7hPa Calm     75% 0.00in /  0mm
08:26 17.2 °F /  -8.2 °C 10.6 °F /  -11.9 °C 30.54in /  1034.1hPa Calm     75% 0.00in /  0mm
08:30 17.4 °F /  -8.1 °C 10.6 °F /  -11.9 °C 30.54in /  1034.1hPa West 1.0mph /  1.6km/h 1.0mph /  1.6km/h 74% 0.00in /  0mm
08:31 17.4 °F /  -8.1 °C 10.6 °F /  -11.9 °C 30.54in /  1034.1hPa West 1.0mph /  1.6km/h 2.0mph /  3.2km/h 74% 0.00in /  0mm
08:36 17.8 °F /  -7.9 °C 10.0 °F /  -12.2 °C 30.54in /  1034.1hPa Calm   1.0mph /  1.6km/h 71% 0.00in /  0mm
08:38 18.0 °F /  -7.8 °C 10.2 °F /  -12.1 °C 30.54in /  1034.1hPa Calm   1.0mph /  1.6km/h 71% 0.00in /  0mm
08:43 18.4 °F /  -7.6 °C 10.3 °F /  -12.1 °C 30.55in /  1034.4hPa West 1.0mph /  1.6km/h 3.0mph /  4.8km/h 70% 0.00in /  0mm
08:48 18.9 °F /  -7.3 °C 11.4 °F /  -11.4 °C 30.55in /  1034.4hPa West 2.0mph /  3.2km/h 3.0mph /  4.8km/h 72% 0.00in /  0mm
08:53 19.3 °F /  -7.1 °C 10.8 °F /  -11.8 °C 30.55in /  1034.4hPa West 1.0mph /  1.6km/h 3.0mph /  4.8km/h 69% 0.00in /  0mm
08:58 19.6 °F /  -6.9 °C 11.1 °F /  -11.6 °C 30.55in /  1034.4hPa West 1.0mph /  1.6km/h 3.0mph /  4.8km/h 69% 0.00in /  0mm
09:00 19.8 °F /  -6.8 °C 11.3 °F /  -11.5 °C 30.56in /  1034.8hPa West 2.0mph /  3.2km/h 3.0mph /  4.8km/h 69% 0.00in /  0mm
09:03 19.9 °F /  -6.7 °C 11.4 °F /  -11.4 °C 30.56in /  1034.8hPa WNW 3.0mph /  4.8km/h 4.0mph /  6.4km/h 69% 0.00in /  0mm
09:08 20.2 °F /  -6.6 °C 11.0 °F /  -11.7 °C 30.56in /  1034.8hPa West 4.0mph /  6.4km/h 5.0mph /  8km/h 67% 0.00in /  0mm
09:13 20.5 °F /  -6.4 °C 11.3 °F /  -11.5 °C 30.56in /  1034.8hPa West 3.0mph /  4.8km/h 4.0mph /  6.4km/h 67% 0.00in /  0mm
09:19 20.8 °F /  -6.2 °C 11.2 °F /  -11.6 °C 30.56in /  1034.8hPa West 3.0mph /  4.8km/h 7.0mph /  11.3km/h 66% 0.00in /  0mm
09:24 21.2 °F /  -6 °C 11.6 °F /  -11.3 °C 30.56in /  1034.8hPa West 1.0mph /  1.6km/h 4.0mph /  6.4km/h 66% 0.00in /  0mm
09:29 21.6 °F /  -5.8 °C 12.0 °F /  -11.1 °C 30.56in /  1034.8hPa WNW 2.0mph /  3.2km/h 4.0mph /  6.4km/h 66% 0.00in /  0mm
09:30 21.9 °F /  -5.6 °C 11.9 °F /  -11.2 °C 30.56in /  1034.8hPa WNW 2.0mph /  3.2km/h 4.0mph /  6.4km/h 65% 0.00in /  0mm
09:34 22.2 °F /  -5.4 °C 12.2 °F /  -11 °C 30.56in /  1034.8hPa WNW 4.0mph /  6.4km/h 4.0mph /  6.4km/h 65% 0.00in /  0mm
09:39 22.4 °F /  -5.3 °C 11.4 °F /  -11.4 °C 30.57in /  1035.1hPa West 6.0mph /  9.7km/h 6.0mph /  9.7km/h 62% 0.00in /  0mm
09:44 22.8 °F /  -5.1 °C 11.4 °F /  -11.4 °C 30.57in /  1035.1hPa WNW 2.0mph /  3.2km/h 6.0mph /  9.7km/h 61% 0.00in /  0mm
09:49 23.2 °F /  -4.9 °C 12.1 °F /  -11.1 °C 30.58in /  1035.4hPa NW 2.0mph /  3.2km/h 4.0mph /  6.4km/h 62% 0.00in /  0mm
09:54 23.4 °F /  -4.8 °C 11.6 °F /  -11.3 °C 30.57in /  1035.1hPa NW 6.0mph /  9.7km/h 6.0mph /  9.7km/h 60% 0.00in /  0mm
09:59 23.6 °F /  -4.7 °C 11.8 °F /  -11.2 °C 30.58in /  1035.4hPa NW 8.0mph /  12.9km/h 8.0mph /  12.9km/h 60% 0.00in /  0mm
10:00 23.6 °F /  -4.7 °C 11.4 °F /  -11.4 °C 30.58in /  1035.4hPa NW 4.0mph /  6.4km/h 8.0mph /  12.9km/h 59% 0.00in /  0mm
10:04 23.7 °F /  -4.6 °C 11.5 °F /  -11.4 °C 30.58in /  1035.4hPa WNW 3.0mph /  4.8km/h 6.0mph /  9.7km/h 59% 0.00in /  0mm
10:09 24.0 °F /  -4.4 °C 12.1 °F /  -11.1 °C 30.58in /  1035.4hPa NNW 3.0mph /  4.8km/h 5.0mph /  8km/h 60% 0.00in /  0mm
10:14 24.3 °F /  -4.3 °C 12.4 °F /  -10.9 °C 30.58in /  1035.4hPa West 4.0mph /  6.4km/h 5.0mph /  8km/h 60% 0.00in /  0mm
10:19 24.5 °F /  -4.2 °C 11.9 °F /  -11.2 °C 30.58in /  1035.4hPa NNE 3.0mph /  4.8km/h 9.0mph /  14.5km/h 58% 0.00in /  0mm
10:24 24.6 °F /  -4.1 °C 11.9 °F /  -11.2 °C 30.58in /  1035.4hPa WNW 5.0mph /  8km/h 7.0mph /  11.3km/h 58% 0.00in /  0mm
10:29 24.6 °F /  -4.1 °C 11.6 °F /  -11.3 °C 30.58in /  1035.4hPa WNW 4.0mph /  6.4km/h 7.0mph /  11.3km/h 57% 0.00in /  0mm
10:30 24.5 °F /  -4.2 °C 11.9 °F /  -11.2 °C 30.58in /  1035.4hPa WNW 4.0mph /  6.4km/h 6.0mph /  9.7km/h 58% 0.00in /  0mm
10:34 24.8 °F /  -4 °C 12.1 °F /  -11.1 °C 30.58in /  1035.4hPa NW 9.0mph /  14.5km/h 9.0mph /  14.5km/h 58% 0.00in /  0mm
10:39 25.1 °F /  -3.8 °C 12.0 °F /  -11.1 °C 30.58in /  1035.4hPa NNW 6.0mph /  9.7km/h 10.0mph /  16.1km/h 57% 0.00in /  0mm
10:44 25.2 °F /  -3.8 °C 12.1 °F /  -11.1 °C 30.58in /  1035.4hPa WNW 5.0mph /  8km/h 9.0mph /  14.5km/h 57% 0.00in /  0mm
10:49 25.4 °F /  -3.7 °C 12.3 °F /  -10.9 °C 30.58in /  1035.4hPa NW 5.0mph /  8km/h 9.0mph /  14.5km/h 57% 0.00in /  0mm
10:54 25.7 °F /  -3.5 °C 12.2 °F /  -11 °C 30.58in /  1035.4hPa WNW 7.0mph /  11.3km/h 10.0mph /  16.1km/h 56% 0.00in /  0mm
10:59 25.7 °F /  -3.5 °C 12.2 °F /  -11 °C 30.58in /  1035.4hPa WNW 4.0mph /  6.4km/h 9.0mph /  14.5km/h 56% 0.00in /  0mm
11:00 25.8 °F /  -3.4 °C 12.3 °F /  -10.9 °C 30.58in /  1035.4hPa NNW 6.0mph /  9.7km/h 9.0mph /  14.5km/h 56% 0.00in /  0mm
11:04 25.9 °F /  -3.4 °C 12.4 °F /  -10.9 °C 30.57in /  1035.1hPa North 4.0mph /  6.4km/h 9.0mph /  14.5km/h 56% 0.00in /  0mm
11:09 26.1 °F /  -3.3 °C 12.2 °F /  -11 °C 30.57in /  1035.1hPa WNW 7.0mph /  11.3km/h 9.0mph /  14.5km/h 55% 0.00in /  0mm
11:14 26.1 °F /  -3.3 °C 12.6 °F /  -10.8 °C 30.57in /  1035.1hPa NNW 5.0mph /  8km/h 6.0mph /  9.7km/h 56% 0.00in /  0mm
11:19 26.3 °F /  -3.2 °C 12.3 °F /  -10.9 °C 30.57in /  1035.1hPa NW 3.0mph /  4.8km/h 7.0mph /  11.3km/h 55% 0.00in /  0mm
11:24 26.9 °F /  -2.8 °C 12.1 °F /  -11.1 °C 30.57in /  1035.1hPa West 4.0mph /  6.4km/h 10.0mph /  16.1km/h 53% 0.00in /  0mm
11:29 27.3 °F /  -2.6 °C 12.9 °F /  -10.6 °C 30.57in /  1035.1hPa NW 7.0mph /  11.3km/h 8.0mph /  12.9km/h 54% 0.00in /  0mm
11:30 27.3 °F /  -2.6 °C 12.4 °F /  -10.9 °C 30.57in /  1035.1hPa North 10.0mph /  16.1km/h 11.0mph /  17.7km/h 53% 0.00in /  0mm
11:34 27.1 °F /  -2.7 °C 11.8 °F /  -11.2 °C 30.57in /  1035.1hPa WNW 6.0mph /  9.7km/h 10.0mph /  16.1km/h 52% 0.00in /  0mm
11:39 27.2 °F /  -2.7 °C 11.9 °F /  -11.2 °C 30.57in /  1035.1hPa NW 4.0mph /  6.4km/h 10.0mph /  16.1km/h 52% 0.00in /  0mm
11:44 27.3 °F /  -2.6 °C 12.0 °F /  -11.1 °C 30.57in /  1035.1hPa NNW 3.0mph /  4.8km/h 9.0mph /  14.5km/h 52% 0.00in /  0mm
11:50 27.7 °F /  -2.4 °C 12.8 °F /  -10.7 °C 30.56in /  1034.8hPa NW 6.0mph /  9.7km/h 7.0mph /  11.3km/h 53% 0.00in /  0mm
11:55 27.9 °F /  -2.3 °C 13.0 °F /  -10.6 °C 30.56in /  1034.8hPa NNW 5.0mph /  8km/h 7.0mph /  11.3km/h 53% 0.00in /  0mm
12:00 28.2 °F /  -2.1 °C 12.9 °F /  -10.6 °C 30.55in /  1034.4hPa North 7.0mph /  11.3km/h 7.0mph /  11.3km/h 52% 0.00in /  0mm
12:05 28.4 °F /  -2 °C 12.6 °F /  -10.8 °C 30.55in /  1034.4hPa North 4.0mph /  6.4km/h 10.0mph /  16.1km/h 51% 0.00in /  0mm
12:10 28.5 °F /  -1.9 °C 12.2 °F /  -11 °C 30.55in /  1034.4hPa North 1.0mph /  1.6km/h 6.0mph /  9.7km/h 50% 0.00in /  0mm
12:15 28.6 °F /  -1.9 °C 12.3 °F /  -10.9 °C 30.54in /  1034.1hPa NW 6.0mph /  9.7km/h 11.0mph /  17.7km/h 50% 0.00in /  0mm
12:20 28.2 °F /  -2.1 °C 12.0 °F /  -11.1 °C 30.54in /  1034.1hPa WSW 3.0mph /  4.8km/h 6.0mph /  9.7km/h 50% 0.00in /  0mm
12:25 28.6 °F /  -1.9 °C 12.8 °F /  -10.7 °C 30.53in /  1033.7hPa SSE 2.0mph /  3.2km/h 6.0mph /  9.7km/h 51% 0.00in /  0mm
12:30 29.2 °F /  -1.6 °C 13.3 °F /  -10.4 °C 30.53in /  1033.7hPa NW 4.0mph /  6.4km/h 4.0mph /  6.4km/h 51% 0.00in /  0mm
12:35 29.4 °F /  -1.4 °C 11.7 °F /  -11.3 °C 30.53in /  1033.7hPa WNW 6.0mph /  9.7km/h 7.0mph /  11.3km/h 47% 0.00in /  0mm
12:40 29.6 °F /  -1.3 °C 12.8 °F /  -10.7 °C 30.52in /  1033.4hPa NNW 3.0mph /  4.8km/h 5.0mph /  8km/h 49% 0.00in /  0mm
12:45 30.0 °F /  -1.1 °C 12.7 °F /  -10.7 °C 30.52in /  1033.4hPa NNW 2.0mph /  3.2km/h 6.0mph /  9.7km/h 48% 0.00in /  0mm
12:50 30.2 °F /  -1 °C 13.4 °F /  -10.3 °C 30.51in /  1033.1hPa NW 6.0mph /  9.7km/h 10.0mph /  16.1km/h 49% 0.00in /  0mm
12:55 30.2 °F /  -1 °C 11.9 °F /  -11.2 °C 30.51in /  1033.1hPa SSW 5.0mph /  8km/h 7.0mph /  11.3km/h 46% 0.00in /  0mm
13:00 30.3 °F /  -0.9 °C 12.0 °F /  -11.1 °C 30.51in /  1033.1hPa NW 5.0mph /  8km/h 7.0mph /  11.3km/h 46% 0.00in /  0mm
13:05 30.5 °F /  -0.8 °C 13.2 °F /  -10.4 °C 30.50in /  1032.7hPa SSW 5.0mph /  8km/h 9.0mph /  14.5km/h 48% 0.00in /  0mm
13:10 30.8 °F /  -0.7 °C 13.4 °F /  -10.3 °C 30.50in /  1032.7hPa WSW 4.0mph /  6.4km/h 10.0mph /  16.1km/h 48% 0.00in /  0mm
13:15 30.7 °F /  -0.7 °C 12.4 °F /  -10.9 °C 30.50in /  1032.7hPa WNW 3.0mph /  4.8km/h 9.0mph /  14.5km/h 46% 0.00in /  0mm
13:20 31.0 °F /  -0.6 °C 12.7 °F /  -10.7 °C 30.50in /  1032.7hPa WNW 7.0mph /  11.3km/h 7.0mph /  11.3km/h 46% 0.00in /  0mm
13:25 31.4 °F /  -0.3 °C 12.0 °F /  -11.1 °C 30.50in /  1032.7hPa West 3.0mph /  4.8km/h 5.0mph /  8km/h 44% 0.00in /  0mm
13:30 31.3 °F /  -0.4 °C 11.4 °F /  -11.4 °C 30.50in /  1032.7hPa NNW 2.0mph /  3.2km/h 8.0mph /  12.9km/h 43% 0.00in /  0mm
13:35 31.5 °F /  -0.3 °C 12.1 °F /  -11.1 °C 30.50in /  1032.7hPa West 5.0mph /  8km/h 7.0mph /  11.3km/h 44% 0.00in /  0mm
13:36 31.5 °F /  -0.3 °C 12.1 °F /  -11.1 °C 30.50in /  1032.7hPa WNW 4.0mph /  6.4km/h 7.0mph /  11.3km/h 44% 0.00in /  0mm
13:41 31.9 °F /  -0.1 °C 12.5 °F /  -10.8 °C 30.50in /  1032.7hPa WNW 4.0mph /  6.4km/h 9.0mph /  14.5km/h 44% 0.00in /  0mm
13:46 32.0 °F /  0 °C 12.1 °F /  -11.1 °C 30.49in /  1032.4hPa West 3.0mph /  4.8km/h 7.0mph /  11.3km/h 43% 0.00in /  0mm
13:51 32.1 °F /  0.1 °C 11.6 °F /  -11.3 °C 30.49in /  1032.4hPa West 4.0mph /  6.4km/h 8.0mph /  12.9km/h 42% 0.00in /  0mm
13:56 32.0 °F /  0 °C 11.5 °F /  -11.4 °C 30.48in /  1032.1hPa SW 4.0mph /  6.4km/h 7.0mph /  11.3km/h 42% 0.00in /  0mm
14:00 32.2 °F /  0.1 °C 12.2 °F /  -11 °C 30.48in /  1032.1hPa WSW 6.0mph /  9.7km/h 6.0mph /  9.7km/h 43% 0.00in /  0mm
14:01 32.3 °F /  0.2 °C 12.3 °F /  -10.9 °C 30.48in /  1032.1hPa WSW 5.0mph /  8km/h 6.0mph /  9.7km/h 43% 0.00in /  0mm
14:06 32.5 °F /  0.3 °C 11.4 °F /  -11.4 °C 30.48in /  1032.1hPa WSW 7.0mph /  11.3km/h 8.0mph /  12.9km/h 41% 0.00in /  0mm
14:11 32.6 °F /  0.3 °C 12.1 °F /  -11.1 °C 30.48in /  1032.1hPa West 4.0mph /  6.4km/h 10.0mph /  16.1km/h 42% 0.00in /  0mm
14:16 32.7 °F /  0.4 °C 11.1 °F /  -11.6 °C 30.48in /  1032.1hPa West 6.0mph /  9.7km/h 11.0mph /  17.7km/h 40% 0.00in /  0mm
14:21 32.8 °F /  0.4 °C 11.1 °F /  -11.6 °C 30.49in /  1032.4hPa WSW 5.0mph /  8km/h 8.0mph /  12.9km/h 40% 0.00in /  0mm
14:26 33.1 °F /  0.6 °C 10.9 °F /  -11.7 °C 30.48in /  1032.1hPa Calm   7.0mph /  11.3km/h 39% 0.00in /  0mm
14:30 33.5 °F /  0.8 °C 11.2 °F /  -11.6 °C 30.48in /  1032.1hPa West 3.0mph /  4.8km/h 5.0mph /  8km/h 39% 0.00in /  0mm
14:31 33.6 °F /  0.9 °C 11.3 °F /  -11.5 °C 30.48in /  1032.1hPa WSW 6.0mph /  9.7km/h 6.0mph /  9.7km/h 39% 0.00in /  0mm
14:36 33.6 °F /  0.9 °C 11.3 °F /  -11.5 °C 30.48in /  1032.1hPa West 4.0mph /  6.4km/h 9.0mph /  14.5km/h 39% 0.00in /  0mm
14:41 33.6 °F /  0.9 °C 10.7 °F /  -11.8 °C 30.48in /  1032.1hPa WSW 5.0mph /  8km/h 6.0mph /  9.7km/h 38% 0.00in /  0mm
14:46 33.9 °F /  1.1 °C 11.6 °F /  -11.3 °C 30.48in /  1032.1hPa WNW 2.0mph /  3.2km/h 6.0mph /  9.7km/h 39% 0.00in /  0mm
14:51 34.1 °F /  1.2 °C 11.2 °F /  -11.6 °C 30.47in /  1031.7hPa West 5.0mph /  8km/h 9.0mph /  14.5km/h 38% 0.00in /  0mm
14:56 33.8 °F /  1 °C 10.9 °F /  -11.7 °C 30.47in /  1031.7hPa NW 4.0mph /  6.4km/h 7.0mph /  11.3km/h 38% 0.00in /  0mm
15:00 33.9 °F /  1.1 °C 11.6 °F /  -11.3 °C 30.47in /  1031.7hPa SSW 5.0mph /  8km/h 5.0mph /  8km/h 39% 0.00in /  0mm
15:01 33.9 °F /  1.1 °C 11.6 °F /  -11.3 °C 30.47in /  1031.7hPa SSW 5.0mph /  8km/h 5.0mph /  8km/h 39% 0.00in /  0mm
15:06 33.7 °F /  0.9 °C 10.8 °F /  -11.8 °C 30.47in /  1031.7hPa Calm   3.0mph /  4.8km/h 38% 0.00in /  0mm
15:11 34.0 °F /  1.1 °C 10.5 °F /  -11.9 °C 30.47in /  1031.7hPa WNW 5.0mph /  8km/h 10.0mph /  16.1km/h 37% 0.00in /  0mm
15:16 34.1 °F /  1.2 °C 10.6 °F /  -11.9 °C 30.47in /  1031.7hPa WSW 1.0mph /  1.6km/h 6.0mph /  9.7km/h 37% 0.00in /  0mm
15:21 34.6 °F /  1.4 °C 10.4 °F /  -12 °C 30.47in /  1031.7hPa WNW 3.0mph /  4.8km/h 8.0mph /  12.9km/h 36% 0.00in /  0mm
15:26 35.1 °F /  1.7 °C 11.5 °F /  -11.4 °C 30.47in /  1031.7hPa NNW 4.0mph /  6.4km/h 8.0mph /  12.9km/h 37% 0.00in /  0mm
15:30 34.8 °F /  1.6 °C 11.2 °F /  -11.6 °C 30.47in /  1031.7hPa NNE 6.0mph /  9.7km/h 8.0mph /  12.9km/h 37% 0.00in /  0mm
15:31 34.8 °F /  1.6 °C 11.2 °F /  -11.6 °C 30.47in /  1031.7hPa West 1.0mph /  1.6km/h 8.0mph /  12.9km/h 37% 0.00in /  0mm
15:37 35.0 °F /  1.7 °C 8.8 °F /  -12.9 °C 30.47in /  1031.7hPa WNW 4.0mph /  6.4km/h 8.0mph /  12.9km/h 33% 0.00in /  0mm
15:42 34.9 °F /  1.6 °C 8.7 °F /  -12.9 °C 30.47in /  1031.7hPa WNW 6.0mph /  9.7km/h 10.0mph /  16.1km/h 33% 0.00in /  0mm
15:47 34.9 °F /  1.6 °C 9.4 °F /  -12.6 °C 30.47in /  1031.7hPa WNW 3.0mph /  4.8km/h 4.0mph /  6.4km/h 34% 0.00in /  0mm
15:52 35.2 °F /  1.8 °C 10.3 °F /  -12.1 °C 30.47in /  1031.7hPa WNW 1.0mph /  1.6km/h 3.0mph /  4.8km/h 35% 0.00in /  0mm
15:57 35.3 °F /  1.8 °C 9.8 °F /  -12.3 °C 30.47in /  1031.7hPa WNW 4.0mph /  6.4km/h 7.0mph /  11.3km/h 34% 0.00in /  0mm
16:00 35.3 °F /  1.8 °C 9.8 °F /  -12.3 °C 30.47in /  1031.7hPa West 1.0mph /  1.6km/h 4.0mph /  6.4km/h 34% 0.00in /  0mm
16:02 35.5 °F /  1.9 °C 9.9 °F /  -12.3 °C 30.47in /  1031.7hPa West 2.0mph /  3.2km/h 4.0mph /  6.4km/h 34% 0.00in /  0mm
16:07 35.6 °F /  2 °C 10.0 °F /  -12.2 °C 30.46in /  1031.4hPa NW 1.0mph /  1.6km/h 3.0mph /  4.8km/h 34% 0.00in /  0mm
16:12 35.8 °F /  2.1 °C 9.5 °F /  -12.5 °C 30.46in /  1031.4hPa WNW 5.0mph /  8km/h 5.0mph /  8km/h 33% 0.00in /  0mm
16:17 35.9 °F /  2.2 °C 9.6 °F /  -12.4 °C 30.47in /  1031.7hPa WSW 1.0mph /  1.6km/h 6.0mph /  9.7km/h 33% 0.00in /  0mm
16:22 36.2 °F /  2.3 °C 10.6 °F /  -11.9 °C 30.46in /  1031.4hPa Calm   2.0mph /  3.2km/h 34% 0.00in /  0mm
16:27 36.6 °F /  2.6 °C 9.6 °F /  -12.4 °C 30.46in /  1031.4hPa NW 1.0mph /  1.6km/h 4.0mph /  6.4km/h 32% 0.00in /  0mm
16:30 36.4 °F /  2.4 °C 10.1 °F /  -12.2 °C 30.46in /  1031.4hPa NNE 3.0mph /  4.8km/h 3.0mph /  4.8km/h 33% 0.00in /  0mm
16:32 36.4 °F /  2.4 °C 9.4 °F /  -12.6 °C 30.46in /  1031.4hPa East 3.0mph /  4.8km/h 4.0mph /  6.4km/h 32% 0.00in /  0mm
16:37 36.3 °F /  2.4 °C 10.0 °F /  -12.2 °C 30.46in /  1031.4hPa West 2.0mph /  3.2km/h 2.0mph /  3.2km/h 33% 0.00in /  0mm
16:42 36.5 °F /  2.5 °C 8.8 °F /  -12.9 °C 30.46in /  1031.4hPa SSW 2.0mph /  3.2km/h 4.0mph /  6.4km/h 31% 0.00in /  0mm
16:47 36.2 °F /  2.3 °C 9.2 °F /  -12.7 °C 30.45in /  1031hPa SW 3.0mph /  4.8km/h 4.0mph /  6.4km/h 32% 0.00in /  0mm
16:52 36.3 °F /  2.4 °C 9.3 °F /  -12.6 °C 30.45in /  1031hPa NW 2.0mph /  3.2km/h 3.0mph /  4.8km/h 32% 0.00in /  0mm
16:57 35.8 °F /  2.1 °C 8.8 °F /  -12.9 °C 30.45in /  1031hPa West 1.0mph /  1.6km/h 5.0mph /  8km/h 32% 0.00in /  0mm
17:00 35.7 °F /  2.1 °C 8.1 °F /  -13.3 °C 30.45in /  1031hPa West 3.0mph /  4.8km/h 4.0mph /  6.4km/h 31% 0.00in /  0mm
17:02 35.6 °F /  2 °C 8.0 °F /  -13.3 °C 30.45in /  1031hPa WSW 3.0mph /  4.8km/h 4.0mph /  6.4km/h 31% 0.00in /  0mm
17:07 35.5 °F /  1.9 °C 8.6 °F /  -13 °C 30.44in /  1030.7hPa West 3.0mph /  4.8km/h 3.0mph /  4.8km/h 32% 0.00in /  0mm
17:12 35.3 °F /  1.8 °C 11.0 °F /  -11.7 °C 30.45in /  1031hPa SW 2.0mph /  3.2km/h 4.0mph /  6.4km/h 36% 0.00in /  0mm
17:17 35.2 °F /  1.8 °C 10.9 °F /  -11.7 °C 30.44in /  1030.7hPa SW 4.0mph /  6.4km/h 4.0mph /  6.4km/h 36% 0.00in /  0mm
17:22 35.1 °F /  1.7 °C 8.9 °F /  -12.8 °C 30.44in /  1030.7hPa SW 1.0mph /  1.6km/h 2.0mph /  3.2km/h 33% 0.00in /  0mm
17:27 35.2 °F /  1.8 °C 10.9 °F /  -11.7 °C 30.44in /  1030.7hPa Calm   1.0mph /  1.6km/h 36% 0.00in /  0mm
17:30 35.3 °F /  1.8 °C 11.0 °F /  -11.7 °C 30.44in /  1030.7hPa Calm     36% 0.00in /  0mm
17:32 35.4 °F /  1.9 °C 10.5 °F /  -11.9 °C 30.44in /  1030.7hPa Calm     35% 0.00in /  0mm
17:37 35.0 °F /  1.7 °C 9.5 °F /  -12.5 °C 30.43in /  1030.4hPa WSW 2.0mph /  3.2km/h 3.0mph /  4.8km/h 34% 0.00in /  0mm
17:42 34.1 °F /  1.2 °C 9.3 °F /  -12.6 °C 30.43in /  1030.4hPa SW 2.0mph /  3.2km/h 2.0mph /  3.2km/h 35% 0.00in /  0mm
17:47 33.5 °F /  0.8 °C 9.4 °F /  -12.6 °C 30.43in /  1030.4hPa WSW 1.0mph /  1.6km/h 2.0mph /  3.2km/h 36% 0.00in /  0mm
17:52 33.0 °F /  0.6 °C 9.6 °F /  -12.4 °C 30.43in /  1030.4hPa Calm   2.0mph /  3.2km/h 37% 0.00in /  0mm
17:57 32.4 °F /  0.2 °C 10.8 °F /  -11.8 °C 30.43in /  1030.4hPa Calm   1.0mph /  1.6km/h 40% 0.00in /  0mm
18:00 32.0 °F /  0 °C 9.9 °F /  -12.3 °C 30.43in /  1030.4hPa Calm     39% 0.00in /  0mm
18:02 31.9 °F /  -0.1 °C 9.8 °F /  -12.3 °C 30.43in /  1030.4hPa Calm     39% 0.00in /  0mm
18:07 31.6 °F /  -0.2 °C 11.2 °F /  -11.6 °C 30.43in /  1030.4hPa Calm     42% 0.00in /  0mm
18:12 31.2 °F /  -0.4 °C 10.2 °F /  -12.1 °C 30.43in /  1030.4hPa Calm     41% 0.00in /  0mm
18:17 30.8 °F /  -0.7 °C 10.4 °F /  -12 °C 30.43in /  1030.4hPa Calm     42% 0.00in /  0mm
18:22 30.5 °F /  -0.8 °C 9.6 °F /  -12.4 °C 30.43in /  1030.4hPa WSW 1.0mph /  1.6km/h 1.0mph /  1.6km/h 41% 0.00in /  0mm
18:27 30.4 °F /  -0.9 °C 9.5 °F /  -12.5 °C 30.44in /  1030.7hPa Calm   1.0mph /  1.6km/h 41% 0.00in /  0mm
18:30 30.1 °F /  -1.1 °C 8.1 °F /  -13.3 °C 30.44in /  1030.7hPa Calm   1.0mph /  1.6km/h 39% 0.00in /  0mm
18:32 30.1 °F /  -1.1 °C 8.1 °F /  -13.3 °C 30.44in /  1030.7hPa Calm   1.0mph /  1.6km/h 39% 0.00in /  0mm
18:37 30.1 °F /  -1.1 °C 8.1 °F /  -13.3 °C 30.44in /  1030.7hPa Calm     39% 0.00in /  0mm
18:42 29.8 °F /  -1.2 °C 8.4 °F /  -13.1 °C 30.44in /  1030.7hPa Calm     40% 0.00in /  0mm
18:47 29.4 °F /  -1.4 °C 8.1 °F /  -13.3 °C 30.44in /  1030.7hPa Calm     40% 0.00in /  0mm
18:53 28.7 °F /  -1.8 °C 8.0 °F /  -13.3 °C 30.44in /  1030.7hPa Calm     41% 0.00in /  0mm
18:58 28.1 °F /  -2.2 °C 8.0 °F /  -13.3 °C 30.44in /  1030.7hPa Calm     42% 0.00in /  0mm
19:00 27.9 °F /  -2.3 °C 7.8 °F /  -13.4 °C 30.44in /  1030.7hPa Calm     42% 0.00in /  0mm
19:03 27.9 °F /  -2.3 °C 7.8 °F /  -13.4 °C 30.44in /  1030.7hPa Calm     42% 0.00in /  0mm
19:08 27.4 °F /  -2.6 °C 7.3 °F /  -13.7 °C 30.44in /  1030.7hPa Calm     42% 0.00in /  0mm
19:13 26.9 °F /  -2.8 °C 7.4 °F /  -13.7 °C 30.44in /  1030.7hPa Calm     43% 0.00in /  0mm
19:18 27.0 °F /  -2.8 °C 8.5 °F /  -13.1 °C 30.44in /  1030.7hPa Calm     45% 0.00in /  0mm
19:26 27.3 °F /  -2.6 °C 9.3 °F /  -12.6 °C 30.43in /  1030.4hPa Calm     46% 0.00in /  0mm
19:31 27.6 °F /  -2.4 °C 8.6 °F /  -13 °C 30.43in /  1030.4hPa Calm     44% 0.00in /  0mm
19:36 27.8 °F /  -2.3 °C 8.7 °F /  -12.9 °C 30.43in /  1030.4hPa Calm     44% 0.00in /  0mm
19:41 27.8 °F /  -2.3 °C 9.2 °F /  -12.7 °C 30.43in /  1030.4hPa SSE 1.0mph /  1.6km/h 2.0mph /  3.2km/h 45% 0.00in /  0mm
19:46 27.5 °F /  -2.5 °C 9.0 °F /  -12.8 °C 30.43in /  1030.4hPa Calm     45% 0.00in /  0mm
19:51 27.4 °F /  -2.6 °C 8.9 °F /  -12.8 °C 30.42in /  1030hPa SSE 1.0mph /  1.6km/h 1.0mph /  1.6km/h 45% 0.00in /  0mm
19:56 27.5 °F /  -2.5 °C 9.0 °F /  -12.8 °C 30.42in /  1030hPa SSE 2.0mph /  3.2km/h 2.0mph /  3.2km/h 45% 0.00in /  0mm
20:01 27.8 °F /  -2.3 °C 9.2 °F /  -12.7 °C 30.42in /  1030hPa SE 1.0mph /  1.6km/h 2.0mph /  3.2km/h 45% 0.00in /  0mm
20:06 28.1 °F /  -2.2 °C 8.5 °F /  -13.1 °C 30.42in /  1030hPa SE 1.0mph /  1.6km/h 1.0mph /  1.6km/h 43% 0.00in /  0mm
20:11 28.1 °F /  -2.2 °C 9.0 °F /  -12.8 °C 30.41in /  1029.7hPa SE 1.0mph /  1.6km/h 2.0mph /  3.2km/h 44% 0.00in /  0mm
20:16 28.1 °F /  -2.2 °C 9.0 °F /  -12.8 °C 30.41in /  1029.7hPa SE 1.0mph /  1.6km/h 1.0mph /  1.6km/h 44% 0.00in /  0mm
20:21 28.2 °F /  -2.1 °C 9.1 °F /  -12.7 °C 30.41in /  1029.7hPa SE 1.0mph /  1.6km/h 1.0mph /  1.6km/h 44% 0.00in /  0mm
20:26 28.1 °F /  -2.2 °C 9.5 °F /  -12.5 °C 30.41in /  1029.7hPa SE 1.0mph /  1.6km/h 1.0mph /  1.6km/h 45% 0.00in /  0mm
20:31 27.8 °F /  -2.3 °C 9.2 °F /  -12.7 °C 30.42in /  1030hPa SE 1.0mph /  1.6km/h 1.0mph /  1.6km/h 45% 0.00in /  0mm
20:36 27.6 °F /  -2.4 °C 9.5 °F /  -12.5 °C 30.42in /  1030hPa SE 1.0mph /  1.6km/h 1.0mph /  1.6km/h 46% 0.00in /  0mm
20:41 27.4 °F /  -2.6 °C 9.4 °F /  -12.6 °C 30.42in /  1030hPa Calm   1.0mph /  1.6km/h 46% 0.00in /  0mm
20:46 27.3 °F /  -2.6 °C 9.7 °F /  -12.4 °C 30.42in /  1030hPa SE 1.0mph /  1.6km/h 1.0mph /  1.6km/h 47% 0.00in /  0mm
20:51 27.1 °F /  -2.7 °C 10.0 °F /  -12.2 °C 30.42in /  1030hPa SE 1.0mph /  1.6km/h 1.0mph /  1.6km/h 48% 0.00in /  0mm
20:56 26.9 °F /  -2.8 °C 9.4 °F /  -12.6 °C 30.42in /  1030hPa SE 1.0mph /  1.6km/h 1.0mph /  1.6km/h 47% 0.00in /  0mm
21:01 26.9 °F /  -2.8 °C 9.4 °F /  -12.6 °C 30.42in /  1030hPa Calm   1.0mph /  1.6km/h 47% 0.00in /  0mm
21:06 26.9 °F /  -2.8 °C 9.4 °F /  -12.6 °C 30.41in /  1029.7hPa Calm   1.0mph /  1.6km/h 47% 0.00in /  0mm
21:11 26.7 °F /  -2.9 °C 9.2 °F /  -12.7 °C 30.41in /  1029.7hPa Calm     47% 0.00in /  0mm
21:16 26.3 °F /  -3.2 °C 8.8 °F /  -12.9 °C 30.41in /  1029.7hPa Calm     47% 0.00in /  0mm
21:21 25.9 °F /  -3.4 °C 8.5 °F /  -13.1 °C 30.42in /  1030hPa Calm     47% 0.00in /  0mm
21:26 25.3 °F /  -3.7 °C 8.8 °F /  -12.9 °C 30.41in /  1029.7hPa Calm     49% 0.00in /  0mm
21:31 25.0 °F /  -3.9 °C 8.6 °F /  -13 °C 30.41in /  1029.7hPa Calm     49% 0.00in /  0mm
21:36 25.5 °F /  -3.6 °C 8.6 °F /  -13 °C 30.41in /  1029.7hPa Calm     48% 0.00in /  0mm
21:41 26.0 °F /  -3.3 °C 8.1 °F /  -13.3 °C 30.41in /  1029.7hPa Calm     46% 0.00in /  0mm
21:47 26.3 °F /  -3.2 °C 8.4 °F /  -13.1 °C 30.41in /  1029.7hPa SSE 1.0mph /  1.6km/h 1.0mph /  1.6km/h 46% 0.00in /  0mm
21:52 26.6 °F /  -3 °C 8.6 °F /  -13 °C 30.40in /  1029.3hPa SE 1.0mph /  1.6km/h 2.0mph /  3.2km/h 46% 0.00in /  0mm
21:57 26.7 °F /  -2.9 °C 9.7 °F /  -12.4 °C 30.40in /  1029.3hPa SE 1.0mph /  1.6km/h 2.0mph /  3.2km/h 48% 0.00in /  0mm
22:02 26.8 °F /  -2.9 °C 8.8 °F /  -12.9 °C 30.40in /  1029.3hPa SE 1.0mph /  1.6km/h 1.0mph /  1.6km/h 46% 0.00in /  0mm
22:07 27.1 °F /  -2.7 °C 9.1 °F /  -12.7 °C 30.40in /  1029.3hPa SE 1.0mph /  1.6km/h 2.0mph /  3.2km/h 46% 0.00in /  0mm
22:12 27.3 °F /  -2.6 °C 9.3 °F /  -12.6 °C 30.39in /  1029hPa SE 1.0mph /  1.6km/h 2.0mph /  3.2km/h 46% 0.00in /  0mm
22:17 27.3 °F /  -2.6 °C 8.8 °F /  -12.9 °C 30.40in /  1029.3hPa SE 1.0mph /  1.6km/h 1.0mph /  1.6km/h 45% 0.00in /  0mm
22:22 27.3 °F /  -2.6 °C 8.8 °F /  -12.9 °C 30.40in /  1029.3hPa SE 1.0mph /  1.6km/h 1.0mph /  1.6km/h 45% 0.00in /  0mm
22:27 27.2 °F /  -2.7 °C 9.2 °F /  -12.7 °C 30.40in /  1029.3hPa SE 1.0mph /  1.6km/h 1.0mph /  1.6km/h 46% 0.00in /  0mm
22:32 27.2 °F /  -2.7 °C 9.2 °F /  -12.7 °C 30.40in /  1029.3hPa ESE 1.0mph /  1.6km/h 1.0mph /  1.6km/h 46% 0.00in /  0mm
22:37 27.4 °F /  -2.6 °C 8.9 °F /  -12.8 °C 30.39in /  1029hPa ESE 1.0mph /  1.6km/h 1.0mph /  1.6km/h 45% 0.00in /  0mm
22:42 27.4 °F /  -2.6 °C 8.9 °F /  -12.8 °C 30.39in /  1029hPa ESE 1.0mph /  1.6km/h 1.0mph /  1.6km/h 45% 0.00in /  0mm
22:47 27.4 °F /  -2.6 °C 9.4 °F /  -12.6 °C 30.39in /  1029hPa Calm   1.0mph /  1.6km/h 46% 0.00in /  0mm
22:52 27.0 °F /  -2.8 °C 9.5 °F /  -12.5 °C 30.39in /  1029hPa ESE 1.0mph /  1.6km/h 1.0mph /  1.6km/h 47% 0.00in /  0mm
22:57 26.6 °F /  -3 °C 9.1 °F /  -12.7 °C 30.39in /  1029hPa East 2.0mph /  3.2km/h 2.0mph /  3.2km/h 47% 0.00in /  0mm
23:02 25.9 °F /  -3.4 °C 10.3 °F /  -12.1 °C 30.39in /  1029hPa Calm   2.0mph /  3.2km/h 51% 0.00in /  0mm
23:07 25.5 °F /  -3.6 °C 9.9 °F /  -12.3 °C 30.39in /  1029hPa SE 1.0mph /  1.6km/h 1.0mph /  1.6km/h 51% 0.00in /  0mm
23:12 25.7 °F /  -3.5 °C 9.6 °F /  -12.4 °C 30.39in /  1029hPa SE 1.0mph /  1.6km/h 2.0mph /  3.2km/h 50% 0.00in /  0mm
23:17 25.6 °F /  -3.6 °C 10.4 °F /  -12 °C 30.39in /  1029hPa SE 1.0mph /  1.6km/h 1.0mph /  1.6km/h 52% 0.00in /  0mm
23:22 25.3 °F /  -3.7 °C 11.0 °F /  -11.7 °C 30.39in /  1029hPa SE 1.0mph /  1.6km/h 1.0mph /  1.6km/h 54% 0.00in /  0mm
23:27 24.8 °F /  -4 °C 11.3 °F /  -11.5 °C 30.39in /  1029hPa SE 2.0mph /  3.2km/h 2.0mph /  3.2km/h 56% 0.00in /  0mm
23:32 24.6 °F /  -4.1 °C 10.8 °F /  -11.8 °C 30.39in /  1029hPa SE 2.0mph /  3.2km/h 3.0mph /  4.8km/h 55% 0.00in /  0mm
23:37 25.0 °F /  -3.9 °C 10.7 °F /  -11.8 °C 30.39in /  1029hPa SE 2.0mph /  3.2km/h 3.0mph /  4.8km/h 54% 0.00in /  0mm
23:42 24.9 °F /  -3.9 °C 11.0 °F /  -11.7 °C 30.39in /  1029hPa SE 2.0mph /  3.2km/h 2.0mph /  3.2km/h 55% 0.00in /  0mm
23:47 24.9 °F /  -3.9 °C 11.4 °F /  -11.4 °C 30.38in /  1028.7hPa SE 2.0mph /  3.2km/h 3.0mph /  4.8km/h 56% 0.00in /  0mm
23:52 25.0 °F /  -3.9 °C 11.9 °F /  -11.2 °C 30.38in /  1028.7hPa ESE 4.0mph /  6.4km/h 4.0mph /  6.4km/h 57% 0.00in /  0mm
23:57 25.4 °F /  -3.7 °C 12.7 °F /  -10.7 °C 30.38in /  1028.7hPa SE 3.0mph /  4.8km/h 4.0mph /  6.4km/h 58% 0.00in /  0mm
Compliments of Weather Underground